QFA7121 PHDH-PHKO
Flight info
| Callsign | QFA7121 |
|---|---|
| Flight time | 1h 18m |
| Altitude | 7000 |
| Route | PALAY V2 LNY VECKI9 |
| Aircraft | C208/L-SDF/C |
Departure
| Time | 2026-04-29 03:03 |
|---|---|
| Airport | Kawaihapai Airfield (PHDH) |
Arrival
| Time | 2026-04-29 04:22 |
|---|---|
| Airport | Ellison Onizuka Kona International Airport at Keāhole (PHKO) |
| Time | Latitude | Longitude | Altitude | Speed | Heading |
|---|---|---|---|---|---|
| 2026-04-29 02:42 | 21.58037 | -158.20724 | 23 ft | 0 kts | 180° |
| 2026-04-29 02:57 | 21.58035 | -158.20724 | 23 ft | 0 kts | 182° |
| 2026-04-29 02:58 | 21.58033 | -158.20724 | 23 ft | 2 kts | 194° |
| 2026-04-29 02:58 | 21.57996 | -158.20768 | 24 ft | 14 kts | 238° |
| 2026-04-29 02:58 | 21.57981 | -158.20898 | 22 ft | 21 kts | 271° |
| 2026-04-29 02:59 | 21.57987 | -158.21037 | 23 ft | 7 kts | 259° |
| 2026-04-29 02:59 | 21.57981 | -158.21042 | 23 ft | 0 kts | 186° |
| 2026-04-29 03:00 | 21.57980 | -158.21042 | 23 ft | 2 kts | 186° |
| 2026-04-29 03:00 | 21.57959 | -158.21013 | 24 ft | 0 kts | 88° |
| 2026-04-29 03:02 | 21.57960 | -158.20917 | 22 ft | 36 kts | 90° |
| 2026-04-29 03:02 | 21.57955 | -158.20484 | 20 ft | 78 kts | 90° |
| 2026-04-29 03:02 | 21.57955 | -158.19802 | 85 ft | 99 kts | 89° |
| 2026-04-29 03:02 | 21.57991 | -158.19048 | 222 ft | 107 kts | 90° |
| 2026-04-29 03:03 | 21.57963 | -158.18086 | 458 ft | 108 kts | 100° |
| 2026-04-29 03:03 | 21.57788 | -158.17300 | 657 ft | 108 kts | 105° |
| 2026-04-29 03:03 | 21.57636 | -158.16510 | 790 ft | 114 kts | 95° |
| 2026-04-29 03:04 | 21.57668 | -158.15582 | 835 ft | 129 kts | 81° |
| 2026-04-29 03:04 | 21.58202 | -158.14880 | 1027 ft | 128 kts | 13° |
| 2026-04-29 03:04 | 21.58962 | -158.15169 | 1283 ft | 121 kts | 299° |
| 2026-04-29 03:04 | 21.59106 | -158.16064 | 1427 ft | 125 kts | 266° |
| 2026-04-29 03:05 | 21.59074 | -158.16984 | 1695 ft | 121 kts | 264° |
| 2026-04-29 03:05 | 21.58967 | -158.17882 | 1902 ft | 122 kts | 258° |
| 2026-04-29 03:05 | 21.58648 | -158.18718 | 2123 ft | 123 kts | 234° |
| 2026-04-29 03:05 | 21.58326 | -158.19574 | 2325 ft | 124 kts | 252° |
| 2026-04-29 03:06 | 21.58002 | -158.20413 | 2598 ft | 122 kts | 242° |
| 2026-04-29 03:06 | 21.57487 | -158.21117 | 2830 ft | 121 kts | 215° |
| 2026-04-29 03:06 | 21.56919 | -158.21723 | 3127 ft | 114 kts | 241° |
| 2026-04-29 03:06 | 21.56539 | -158.22457 | 3390 ft | 111 kts | 238° |
| 2026-04-29 03:07 | 21.56158 | -158.23158 | 3632 ft | 107 kts | 238° |
| 2026-04-29 03:07 | 21.55788 | -158.23837 | 3874 ft | 104 kts | 238° |
| 2026-04-29 03:07 | 21.55542 | -158.24289 | 4033 ft | 103 kts | 238° |
| 2026-04-29 03:07 | 21.55152 | -158.25006 | 4289 ft | 99 kts | 238° |
| 2026-04-29 03:08 | 21.54813 | -158.25630 | 4515 ft | 94 kts | 238° |
| 2026-04-29 03:08 | 21.54469 | -158.26264 | 4634 ft | 102 kts | 238° |
| 2026-04-29 03:08 | 21.54101 | -158.26942 | 4764 ft | 110 kts | 239° |
| 2026-04-29 03:08 | 21.53702 | -158.27677 | 4872 ft | 118 kts | 238° |
| 2026-04-29 03:09 | 21.53273 | -158.28464 | 4984 ft | 125 kts | 239° |
| 2026-04-29 03:09 | 21.52821 | -158.29292 | 5092 ft | 132 kts | 239° |
| 2026-04-29 03:09 | 21.52349 | -158.30156 | 5195 ft | 136 kts | 239° |
| 2026-04-29 03:09 | 21.51860 | -158.31048 | 5292 ft | 141 kts | 239° |
| 2026-04-29 03:10 | 21.51359 | -158.31964 | 5383 ft | 144 kts | 239° |
| 2026-04-29 03:10 | 21.50845 | -158.32898 | 5471 ft | 146 kts | 238° |
| 2026-04-29 03:10 | 21.50385 | -158.33415 | 5537 ft | 146 kts | 209° |
| 2026-04-29 03:10 | 21.49430 | -158.33765 | 5674 ft | 145 kts | 196° |
| 2026-04-29 03:11 | 21.48467 | -158.34076 | 5806 ft | 145 kts | 197° |
| 2026-04-29 03:11 | 21.47752 | -158.34307 | 5895 ft | 144 kts | 197° |
| 2026-04-29 03:11 | 21.46792 | -158.34617 | 6019 ft | 144 kts | 197° |
| 2026-04-29 03:11 | 21.45827 | -158.34928 | 6144 ft | 144 kts | 197° |
| 2026-04-29 03:12 | 21.44863 | -158.35237 | 6269 ft | 144 kts | 196° |
| 2026-04-29 03:12 | 21.43899 | -158.35542 | 6393 ft | 145 kts | 197° |
| 2026-04-29 03:12 | 21.42601 | -158.35672 | 6558 ft | 145 kts | 162° |
| 2026-04-29 03:12 | 21.41967 | -158.35413 | 6671 ft | 143 kts | 159° |
| 2026-04-29 03:13 | 21.41052 | -158.35042 | 6863 ft | 139 kts | 160° |
| 2026-04-29 03:13 | 21.40153 | -158.34676 | 6995 ft | 141 kts | 160° |
| 2026-04-29 03:13 | 21.39203 | -158.34291 | 6999 ft | 150 kts | 160° |
| 2026-04-29 03:13 | 21.38203 | -158.33887 | 7011 ft | 157 kts | 160° |
| 2026-04-29 03:14 | 21.37163 | -158.33466 | 7006 ft | 162 kts | 160° |
| 2026-04-29 03:14 | 21.36187 | -158.32854 | 7013 ft | 166 kts | 135° |
| 2026-04-29 03:14 | 21.35427 | -158.31912 | 7012 ft | 168 kts | 131° |
| 2026-04-29 03:14 | 21.34666 | -158.30948 | 7005 ft | 170 kts | 131° |
| 2026-04-29 03:15 | 21.33901 | -158.29981 | 7008 ft | 169 kts | 131° |
| 2026-04-29 03:15 | 21.33151 | -158.29032 | 7005 ft | 165 kts | 131° |
| 2026-04-29 03:15 | 21.32414 | -158.28097 | 6999 ft | 163 kts | 131° |
| 2026-04-29 03:15 | 21.31687 | -158.27176 | 6993 ft | 161 kts | 131° |
| 2026-04-29 03:16 | 21.30967 | -158.26261 | 6992 ft | 160 kts | 131° |
| 2026-04-29 03:16 | 21.30248 | -158.25350 | 6992 ft | 160 kts | 131° |
| 2026-04-29 03:16 | 21.29532 | -158.24441 | 6993 ft | 159 kts | 131° |
| 2026-04-29 03:16 | 21.28818 | -158.23534 | 6992 ft | 159 kts | 131° |
| 2026-04-29 03:17 | 21.28181 | -158.22573 | 6995 ft | 159 kts | 111° |
| 2026-04-29 03:17 | 21.27943 | -158.21415 | 6999 ft | 159 kts | 101° |
| 2026-04-29 03:17 | 21.27685 | -158.20259 | 6998 ft | 159 kts | 105° |
| 2026-04-29 03:17 | 21.27386 | -158.19115 | 6996 ft | 160 kts | 106° |
| 2026-04-29 03:18 | 21.27079 | -158.17969 | 7000 ft | 160 kts | 107° |
| 2026-04-29 03:18 | 21.26772 | -158.16825 | 6998 ft | 160 kts | 107° |
| 2026-04-29 03:18 | 21.26464 | -158.15682 | 6996 ft | 160 kts | 107° |
| 2026-04-29 03:18 | 21.26157 | -158.14535 | 7001 ft | 160 kts | 107° |
| 2026-04-29 03:19 | 21.25849 | -158.13391 | 6994 ft | 160 kts | 107° |
| 2026-04-29 03:19 | 21.25541 | -158.12244 | 6999 ft | 160 kts | 107° |
| 2026-04-29 03:19 | 21.25234 | -158.11104 | 6998 ft | 160 kts | 107° |
| 2026-04-29 03:19 | 21.24926 | -158.09961 | 6998 ft | 160 kts | 107° |
| 2026-04-29 03:20 | 21.24616 | -158.08810 | 7002 ft | 160 kts | 107° |
| 2026-04-29 03:20 | 21.24308 | -158.07667 | 6995 ft | 160 kts | 107° |
| 2026-04-29 03:20 | 21.23999 | -158.06518 | 7002 ft | 160 kts | 107° |
| 2026-04-29 03:20 | 21.23689 | -158.05368 | 6998 ft | 160 kts | 107° |
| 2026-04-29 03:21 | 21.23380 | -158.04221 | 7001 ft | 160 kts | 107° |
| 2026-04-29 03:21 | 21.23070 | -158.03072 | 7000 ft | 160 kts | 107° |
| 2026-04-29 03:21 | 21.22761 | -158.01926 | 7000 ft | 160 kts | 107° |
| 2026-04-29 03:21 | 21.22451 | -158.00775 | 7000 ft | 160 kts | 107° |
| 2026-04-29 03:22 | 21.22141 | -157.99629 | 7000 ft | 160 kts | 107° |
| 2026-04-29 03:22 | 21.21831 | -157.98479 | 6999 ft | 160 kts | 107° |
| 2026-04-29 03:22 | 21.21521 | -157.97329 | 7000 ft | 161 kts | 107° |
| 2026-04-29 03:22 | 21.21212 | -157.96182 | 6998 ft | 161 kts | 107° |
| 2026-04-29 03:23 | 21.20900 | -157.95032 | 7001 ft | 161 kts | 107° |
| 2026-04-29 03:23 | 21.20591 | -157.93884 | 6999 ft | 161 kts | 107° |
| 2026-04-29 03:23 | 21.20280 | -157.92735 | 6994 ft | 161 kts | 107° |
| 2026-04-29 03:23 | 21.19968 | -157.91582 | 6998 ft | 161 kts | 107° |
| 2026-04-29 03:24 | 21.19658 | -157.90437 | 6998 ft | 161 kts | 107° |
| 2026-04-29 03:24 | 21.19346 | -157.89280 | 7000 ft | 161 kts | 107° |
| 2026-04-29 03:24 | 21.19035 | -157.88133 | 6999 ft | 161 kts | 107° |
| 2026-04-29 03:24 | 21.18725 | -157.86984 | 6995 ft | 160 kts | 107° |
| 2026-04-29 03:25 | 21.18413 | -157.85836 | 6998 ft | 160 kts | 107° |
| 2026-04-29 03:25 | 21.18103 | -157.84689 | 6997 ft | 160 kts | 107° |
| 2026-04-29 03:25 | 21.17791 | -157.83540 | 6998 ft | 160 kts | 107° |
| 2026-04-29 03:25 | 21.17481 | -157.82393 | 6996 ft | 160 kts | 107° |
| 2026-04-29 03:26 | 21.17170 | -157.81247 | 6995 ft | 160 kts | 107° |
| 2026-04-29 03:26 | 21.16863 | -157.80114 | 6996 ft | 160 kts | 107° |
| 2026-04-29 03:26 | 21.16551 | -157.78964 | 6994 ft | 160 kts | 107° |
| 2026-04-29 03:26 | 21.16239 | -157.77817 | 6997 ft | 161 kts | 107° |
| 2026-04-29 03:27 | 21.15929 | -157.76669 | 6996 ft | 161 kts | 107° |
| 2026-04-29 03:27 | 21.15616 | -157.75520 | 6998 ft | 161 kts | 107° |
| 2026-04-29 03:27 | 21.15304 | -157.74371 | 6994 ft | 161 kts | 107° |
| 2026-04-29 03:27 | 21.14993 | -157.73223 | 6995 ft | 161 kts | 107° |
| 2026-04-29 03:28 | 21.14681 | -157.72074 | 6998 ft | 161 kts | 107° |
| 2026-04-29 03:28 | 21.14368 | -157.70925 | 6998 ft | 161 kts | 107° |
| 2026-04-29 03:28 | 21.14056 | -157.69778 | 6995 ft | 161 kts | 107° |
| 2026-04-29 03:28 | 21.13744 | -157.68629 | 6993 ft | 161 kts | 107° |
| 2026-04-29 03:29 | 21.13431 | -157.67481 | 6997 ft | 161 kts | 107° |
| 2026-04-29 03:29 | 21.13119 | -157.66331 | 6994 ft | 161 kts | 107° |
| 2026-04-29 03:29 | 21.12806 | -157.65184 | 6993 ft | 161 kts | 107° |
| 2026-04-29 03:29 | 21.12494 | -157.64036 | 6996 ft | 161 kts | 107° |
| 2026-04-29 03:30 | 21.12182 | -157.62888 | 6993 ft | 161 kts | 107° |
| 2026-04-29 03:30 | 21.11868 | -157.61739 | 6992 ft | 161 kts | 107° |
| 2026-04-29 03:30 | 21.11552 | -157.60579 | 6954 ft | 163 kts | 107° |
| 2026-04-29 03:30 | 21.11236 | -157.59418 | 6956 ft | 162 kts | 107° |
| 2026-04-29 03:31 | 21.10600 | -157.57112 | 6950 ft | 161 kts | 110° |
| 2026-04-29 03:31 | 21.10050 | -157.56074 | 6946 ft | 160 kts | 123° |
| 2026-04-29 03:31 | 21.09468 | -157.55059 | 6947 ft | 160 kts | 121° |
| 2026-04-29 03:32 | 21.08893 | -157.54038 | 6947 ft | 160 kts | 122° |
| 2026-04-29 03:32 | 21.08318 | -157.53016 | 6947 ft | 160 kts | 122° |
| 2026-04-29 03:32 | 21.07742 | -157.51996 | 6947 ft | 160 kts | 122° |
| 2026-04-29 03:32 | 21.07167 | -157.50976 | 6947 ft | 160 kts | 122° |
| 2026-04-29 03:33 | 21.06591 | -157.49957 | 6946 ft | 160 kts | 122° |
| 2026-04-29 03:33 | 21.06015 | -157.48938 | 6946 ft | 160 kts | 122° |
| 2026-04-29 03:33 | 21.05439 | -157.47919 | 6946 ft | 160 kts | 122° |
| 2026-04-29 03:33 | 21.04863 | -157.46901 | 6946 ft | 160 kts | 122° |
| 2026-04-29 03:34 | 21.04287 | -157.45881 | 6946 ft | 160 kts | 122° |
| 2026-04-29 03:34 | 21.03711 | -157.44862 | 6946 ft | 160 kts | 122° |
| 2026-04-29 03:34 | 21.03134 | -157.43843 | 6945 ft | 160 kts | 122° |
| 2026-04-29 03:34 | 21.02557 | -157.42822 | 6945 ft | 160 kts | 122° |
| 2026-04-29 03:35 | 21.01980 | -157.41803 | 6945 ft | 160 kts | 122° |
| 2026-04-29 03:35 | 21.01404 | -157.40785 | 6945 ft | 160 kts | 122° |
| 2026-04-29 03:35 | 21.00827 | -157.39766 | 6945 ft | 160 kts | 122° |
| 2026-04-29 03:35 | 21.00251 | -157.38747 | 6945 ft | 160 kts | 122° |
| 2026-04-29 03:36 | 20.99675 | -157.37731 | 6945 ft | 160 kts | 122° |
| 2026-04-29 03:36 | 20.99096 | -157.36709 | 6945 ft | 160 kts | 122° |
| 2026-04-29 03:36 | 20.98520 | -157.35690 | 6945 ft | 160 kts | 122° |
| 2026-04-29 03:36 | 20.97941 | -157.34671 | 6945 ft | 160 kts | 122° |
| 2026-04-29 03:37 | 20.97365 | -157.33651 | 6944 ft | 160 kts | 122° |
| 2026-04-29 03:37 | 20.96787 | -157.32633 | 6944 ft | 160 kts | 122° |
| 2026-04-29 03:37 | 20.96210 | -157.31614 | 6944 ft | 160 kts | 122° |
| 2026-04-29 03:37 | 20.95639 | -157.30608 | 6944 ft | 160 kts | 122° |
| 2026-04-29 03:38 | 20.95062 | -157.29590 | 6944 ft | 160 kts | 122° |
| 2026-04-29 03:38 | 20.94484 | -157.28571 | 6944 ft | 160 kts | 122° |
| 2026-04-29 03:38 | 20.93906 | -157.27553 | 6943 ft | 160 kts | 122° |
| 2026-04-29 03:38 | 20.93328 | -157.26532 | 6943 ft | 160 kts | 122° |
| 2026-04-29 03:39 | 20.92749 | -157.25514 | 6943 ft | 160 kts | 122° |
| 2026-04-29 03:39 | 20.92172 | -157.24495 | 6943 ft | 160 kts | 122° |
| 2026-04-29 03:39 | 20.91593 | -157.23477 | 6943 ft | 160 kts | 122° |
| 2026-04-29 03:39 | 20.91015 | -157.22458 | 6943 ft | 160 kts | 122° |
| 2026-04-29 03:40 | 20.90436 | -157.21438 | 6943 ft | 160 kts | 122° |
| 2026-04-29 03:40 | 20.89858 | -157.20421 | 6943 ft | 160 kts | 122° |
| 2026-04-29 03:40 | 20.89280 | -157.19403 | 6943 ft | 160 kts | 122° |
| 2026-04-29 03:40 | 20.88700 | -157.18385 | 6942 ft | 160 kts | 122° |
| 2026-04-29 03:41 | 20.88121 | -157.17365 | 6942 ft | 160 kts | 122° |
| 2026-04-29 03:41 | 20.87542 | -157.16346 | 6942 ft | 160 kts | 122° |
| 2026-04-29 03:41 | 20.86963 | -157.15327 | 6942 ft | 160 kts | 122° |
| 2026-04-29 03:41 | 20.86382 | -157.14306 | 6942 ft | 160 kts | 122° |
| 2026-04-29 03:42 | 20.85803 | -157.13289 | 6942 ft | 160 kts | 122° |
| 2026-04-29 03:42 | 20.85224 | -157.12270 | 6941 ft | 160 kts | 122° |
| 2026-04-29 03:42 | 20.84645 | -157.11251 | 6941 ft | 160 kts | 122° |
| 2026-04-29 03:42 | 20.84064 | -157.10232 | 6941 ft | 160 kts | 122° |
| 2026-04-29 03:43 | 20.83485 | -157.09215 | 6941 ft | 160 kts | 122° |
| 2026-04-29 03:43 | 20.82906 | -157.08197 | 6941 ft | 160 kts | 122° |
| 2026-04-29 03:43 | 20.82326 | -157.07179 | 6941 ft | 160 kts | 122° |
| 2026-04-29 03:43 | 20.81746 | -157.06161 | 6940 ft | 160 kts | 122° |
| 2026-04-29 03:44 | 20.81167 | -157.05143 | 6940 ft | 160 kts | 122° |
| 2026-04-29 03:44 | 20.80587 | -157.04127 | 6940 ft | 160 kts | 122° |
| 2026-04-29 03:44 | 20.80008 | -157.03110 | 6940 ft | 160 kts | 122° |
| 2026-04-29 03:44 | 20.79429 | -157.02095 | 6940 ft | 160 kts | 122° |
| 2026-04-29 03:45 | 20.78849 | -157.01077 | 6940 ft | 160 kts | 122° |
| 2026-04-29 03:45 | 20.78269 | -157.00060 | 6939 ft | 160 kts | 122° |
| 2026-04-29 03:45 | 20.77834 | -156.99296 | 6939 ft | 160 kts | 122° |
| 2026-04-29 03:45 | 20.77250 | -156.98275 | 6943 ft | 162 kts | 122° |
| 2026-04-29 03:46 | 20.76664 | -156.97246 | 6943 ft | 162 kts | 122° |
| 2026-04-29 03:46 | 20.76018 | -156.96262 | 6941 ft | 162 kts | 129° |
| 2026-04-29 03:46 | 20.75332 | -156.95312 | 6942 ft | 162 kts | 128° |
| 2026-04-29 03:46 | 20.74652 | -156.94355 | 6943 ft | 162 kts | 128° |
| 2026-04-29 03:47 | 20.73971 | -156.93396 | 6943 ft | 162 kts | 128° |
| 2026-04-29 03:47 | 20.73288 | -156.92439 | 6942 ft | 162 kts | 128° |
| 2026-04-29 03:47 | 20.72607 | -156.91482 | 6941 ft | 161 kts | 128° |
| 2026-04-29 03:47 | 20.71929 | -156.90530 | 6940 ft | 161 kts | 128° |
| 2026-04-29 03:48 | 20.71252 | -156.89582 | 6939 ft | 161 kts | 128° |
| 2026-04-29 03:48 | 20.70576 | -156.88633 | 6939 ft | 160 kts | 128° |
| 2026-04-29 03:48 | 20.69898 | -156.87685 | 6938 ft | 160 kts | 128° |
| 2026-04-29 03:48 | 20.69223 | -156.86738 | 6937 ft | 160 kts | 128° |
| 2026-04-29 03:49 | 20.68548 | -156.85793 | 6937 ft | 160 kts | 128° |
| 2026-04-29 03:49 | 20.67872 | -156.84846 | 6936 ft | 160 kts | 128° |
| 2026-04-29 03:49 | 20.67197 | -156.83900 | 6936 ft | 160 kts | 128° |
| 2026-04-29 03:49 | 20.66523 | -156.82955 | 6936 ft | 160 kts | 128° |
| 2026-04-29 03:50 | 20.65847 | -156.82009 | 6936 ft | 160 kts | 128° |
| 2026-04-29 03:50 | 20.65172 | -156.81064 | 6937 ft | 160 kts | 128° |
| 2026-04-29 03:50 | 20.64497 | -156.80119 | 6937 ft | 160 kts | 128° |
| 2026-04-29 03:50 | 20.63822 | -156.79175 | 6937 ft | 160 kts | 128° |
| 2026-04-29 03:51 | 20.63147 | -156.78230 | 6936 ft | 160 kts | 128° |
| 2026-04-29 03:51 | 20.62472 | -156.77285 | 6936 ft | 160 kts | 128° |
| 2026-04-29 03:51 | 20.61797 | -156.76342 | 6936 ft | 160 kts | 128° |
| 2026-04-29 03:51 | 20.61122 | -156.75396 | 6936 ft | 160 kts | 128° |
| 2026-04-29 03:52 | 20.60447 | -156.74454 | 6936 ft | 160 kts | 128° |
| 2026-04-29 03:52 | 20.59770 | -156.73507 | 6935 ft | 160 kts | 128° |
| 2026-04-29 03:52 | 20.59095 | -156.72564 | 6937 ft | 160 kts | 128° |
| 2026-04-29 03:52 | 20.58651 | -156.71942 | 6937 ft | 160 kts | 128° |
| 2026-04-29 03:53 | 20.57748 | -156.70680 | 6937 ft | 160 kts | 128° |
| 2026-04-29 03:53 | 20.57300 | -156.70054 | 6937 ft | 160 kts | 128° |
| 2026-04-29 03:53 | 20.56397 | -156.68792 | 6937 ft | 160 kts | 128° |
| 2026-04-29 03:53 | 20.55949 | -156.68167 | 6936 ft | 160 kts | 128° |
| 2026-04-29 03:54 | 20.55274 | -156.67224 | 6939 ft | 160 kts | 128° |
| 2026-04-29 03:54 | 20.54594 | -156.66276 | 6938 ft | 161 kts | 128° |
| 2026-04-29 03:54 | 20.53913 | -156.65325 | 6938 ft | 161 kts | 128° |
| 2026-04-29 03:54 | 20.53235 | -156.64377 | 6938 ft | 161 kts | 128° |
| 2026-04-29 03:55 | 20.52555 | -156.63428 | 6939 ft | 161 kts | 128° |
| 2026-04-29 03:55 | 20.51875 | -156.62479 | 6939 ft | 161 kts | 128° |
| 2026-04-29 03:55 | 20.51193 | -156.61528 | 6938 ft | 161 kts | 128° |
| 2026-04-29 03:55 | 20.50513 | -156.60579 | 6938 ft | 161 kts | 128° |
| 2026-04-29 03:56 | 20.49834 | -156.59633 | 6937 ft | 161 kts | 128° |
| 2026-04-29 03:56 | 20.49155 | -156.58685 | 6937 ft | 160 kts | 128° |
| 2026-04-29 03:56 | 20.48477 | -156.57741 | 6936 ft | 160 kts | 128° |
| 2026-04-29 03:56 | 20.47800 | -156.56796 | 6935 ft | 160 kts | 128° |
| 2026-04-29 03:57 | 20.47122 | -156.55852 | 6937 ft | 160 kts | 128° |
| 2026-04-29 03:57 | 20.46445 | -156.54908 | 6936 ft | 160 kts | 128° |
| 2026-04-29 03:57 | 20.45770 | -156.53967 | 6936 ft | 160 kts | 128° |
| 2026-04-29 03:57 | 20.45093 | -156.53024 | 6936 ft | 160 kts | 128° |
| 2026-04-29 03:58 | 20.44425 | -156.52094 | 6936 ft | 160 kts | 128° |
| 2026-04-29 03:58 | 20.43749 | -156.51153 | 6935 ft | 160 kts | 128° |
| 2026-04-29 03:58 | 20.43073 | -156.50211 | 6937 ft | 160 kts | 128° |
| 2026-04-29 03:58 | 20.42396 | -156.49269 | 6937 ft | 160 kts | 128° |
| 2026-04-29 03:59 | 20.41718 | -156.48326 | 6937 ft | 160 kts | 128° |
| 2026-04-29 03:59 | 20.41043 | -156.47385 | 6937 ft | 160 kts | 128° |
| 2026-04-29 03:59 | 20.40365 | -156.46443 | 6936 ft | 160 kts | 128° |
| 2026-04-29 03:59 | 20.39689 | -156.45501 | 6936 ft | 160 kts | 128° |
| 2026-04-29 04:00 | 20.39013 | -156.44561 | 6936 ft | 160 kts | 128° |
| 2026-04-29 04:00 | 20.38336 | -156.43620 | 6936 ft | 160 kts | 128° |
| 2026-04-29 04:00 | 20.37658 | -156.42677 | 6936 ft | 160 kts | 128° |
| 2026-04-29 04:00 | 20.36981 | -156.41736 | 6936 ft | 160 kts | 128° |
| 2026-04-29 04:01 | 20.36304 | -156.40795 | 6936 ft | 160 kts | 128° |
| 2026-04-29 04:01 | 20.35627 | -156.39854 | 6936 ft | 160 kts | 128° |
| 2026-04-29 04:01 | 20.34949 | -156.38912 | 6936 ft | 160 kts | 128° |
| 2026-04-29 04:01 | 20.34271 | -156.37970 | 6935 ft | 160 kts | 128° |
| 2026-04-29 04:02 | 20.33594 | -156.37030 | 6937 ft | 160 kts | 128° |
| 2026-04-29 04:02 | 20.32917 | -156.36089 | 6937 ft | 160 kts | 128° |
| 2026-04-29 04:02 | 20.32239 | -156.35148 | 6937 ft | 160 kts | 128° |
| 2026-04-29 04:02 | 20.31562 | -156.34207 | 6937 ft | 160 kts | 128° |
| 2026-04-29 04:03 | 20.30884 | -156.33266 | 6936 ft | 160 kts | 128° |
| 2026-04-29 04:03 | 20.30206 | -156.32325 | 6936 ft | 160 kts | 128° |
| 2026-04-29 04:03 | 20.29529 | -156.31385 | 6936 ft | 160 kts | 128° |
| 2026-04-29 04:03 | 20.28849 | -156.30443 | 6936 ft | 160 kts | 128° |
| 2026-04-29 04:04 | 20.28171 | -156.29501 | 6936 ft | 160 kts | 128° |
| 2026-04-29 04:04 | 20.27494 | -156.28562 | 6936 ft | 160 kts | 128° |
| 2026-04-29 04:04 | 20.26815 | -156.27620 | 6936 ft | 160 kts | 128° |
| 2026-04-29 04:04 | 20.26136 | -156.26679 | 6935 ft | 160 kts | 128° |
| 2026-04-29 04:05 | 20.25459 | -156.25739 | 6937 ft | 160 kts | 128° |
| 2026-04-29 04:05 | 20.24780 | -156.24799 | 6937 ft | 160 kts | 128° |
| 2026-04-29 04:05 | 20.24102 | -156.23859 | 6937 ft | 160 kts | 128° |
| 2026-04-29 04:05 | 20.23424 | -156.22919 | 6937 ft | 160 kts | 128° |
| 2026-04-29 04:06 | 20.22746 | -156.21980 | 6937 ft | 160 kts | 128° |
| 2026-04-29 04:06 | 20.22068 | -156.21039 | 6936 ft | 160 kts | 128° |
| 2026-04-29 04:06 | 20.21389 | -156.20100 | 6936 ft | 160 kts | 128° |
| 2026-04-29 04:06 | 20.20711 | -156.19160 | 6936 ft | 160 kts | 128° |
| 2026-04-29 04:07 | 20.20032 | -156.18221 | 6936 ft | 160 kts | 128° |
| 2026-04-29 04:07 | 20.19353 | -156.17281 | 6936 ft | 160 kts | 128° |
| 2026-04-29 04:07 | 20.18674 | -156.16341 | 6936 ft | 160 kts | 128° |
| 2026-04-29 04:07 | 20.17996 | -156.15402 | 6936 ft | 160 kts | 128° |
| 2026-04-29 04:08 | 20.17322 | -156.14469 | 6936 ft | 160 kts | 128° |
| 2026-04-29 04:08 | 20.16802 | -156.13750 | 6936 ft | 160 kts | 128° |
| 2026-04-29 04:08 | 20.16121 | -156.12808 | 6936 ft | 160 kts | 128° |
| 2026-04-29 04:08 | 20.15440 | -156.11867 | 6937 ft | 160 kts | 128° |
| 2026-04-29 04:09 | 20.14763 | -156.10930 | 6966 ft | 159 kts | 128° |
| 2026-04-29 04:09 | 20.14083 | -156.09989 | 6859 ft | 161 kts | 128° |
| 2026-04-29 04:09 | 20.13416 | -156.09073 | 6667 ft | 153 kts | 128° |
| 2026-04-29 04:09 | 20.12778 | -156.08190 | 6473 ft | 148 kts | 128° |
| 2026-04-29 04:10 | 20.12156 | -156.07328 | 6286 ft | 146 kts | 128° |
| 2026-04-29 04:10 | 20.11548 | -156.06473 | 6101 ft | 144 kts | 128° |
| 2026-04-29 04:10 | 20.10948 | -156.05628 | 5919 ft | 143 kts | 128° |
| 2026-04-29 04:10 | 20.10351 | -156.04789 | 5739 ft | 142 kts | 128° |
| 2026-04-29 04:11 | 20.09756 | -156.03951 | 5560 ft | 141 kts | 128° |
| 2026-04-29 04:11 | 20.09165 | -156.03120 | 5383 ft | 141 kts | 128° |
| 2026-04-29 04:11 | 20.08576 | -156.02292 | 5207 ft | 140 kts | 128° |
| 2026-04-29 04:11 | 20.07971 | -156.01480 | 5024 ft | 140 kts | 139° |
| 2026-04-29 04:12 | 20.07080 | -156.01195 | 4841 ft | 137 kts | 188° |
| 2026-04-29 04:12 | 20.06137 | -156.01294 | 4672 ft | 136 kts | 184° |
| 2026-04-29 04:12 | 20.05191 | -156.01369 | 4504 ft | 136 kts | 185° |
| 2026-04-29 04:12 | 20.04249 | -156.01456 | 4328 ft | 136 kts | 185° |
| 2026-04-29 04:13 | 20.03305 | -156.01544 | 4156 ft | 136 kts | 186° |
| 2026-04-29 04:13 | 20.02363 | -156.01634 | 3983 ft | 136 kts | 185° |
| 2026-04-29 04:13 | 20.01421 | -156.01720 | 3808 ft | 136 kts | 186° |
| 2026-04-29 04:13 | 20.00480 | -156.01809 | 3632 ft | 136 kts | 185° |
| 2026-04-29 04:14 | 19.99541 | -156.01899 | 3454 ft | 135 kts | 193° |
| 2026-04-29 04:14 | 19.98674 | -156.02269 | 3275 ft | 134 kts | 191° |
| 2026-04-29 04:14 | 19.97753 | -156.02379 | 3103 ft | 133 kts | 187° |
| 2026-04-29 04:14 | 19.96839 | -156.02489 | 2975 ft | 129 kts | 186° |
| 2026-04-29 04:15 | 19.95952 | -156.02574 | 2978 ft | 132 kts | 185° |
| 2026-04-29 04:15 | 19.95004 | -156.02667 | 2983 ft | 142 kts | 185° |
| 2026-04-29 04:15 | 19.94000 | -156.02763 | 2983 ft | 148 kts | 185° |
| 2026-04-29 04:15 | 19.92963 | -156.02852 | 2981 ft | 152 kts | 185° |
| 2026-04-29 04:16 | 19.91902 | -156.02951 | 2981 ft | 154 kts | 185° |
| 2026-04-29 04:16 | 19.90831 | -156.03044 | 2983 ft | 155 kts | 186° |
| 2026-04-29 04:16 | 19.89735 | -156.03142 | 2861 ft | 163 kts | 185° |
| 2026-04-29 04:16 | 19.88577 | -156.03248 | 2647 ft | 171 kts | 186° |
| 2026-04-29 04:17 | 19.87378 | -156.03353 | 2414 ft | 169 kts | 185° |
| 2026-04-29 04:17 | 19.86308 | -156.03455 | 2192 ft | 142 kts | 186° |
| 2026-04-29 04:17 | 19.85381 | -156.03536 | 2007 ft | 126 kts | 185° |
| 2026-04-29 04:17 | 19.84543 | -156.03608 | 1845 ft | 116 kts | 185° |
| 2026-04-29 04:18 | 19.83767 | -156.03678 | 1698 ft | 108 kts | 186° |
| 2026-04-29 04:18 | 19.83040 | -156.03741 | 1580 ft | 100 kts | 185° |
| 2026-04-29 04:18 | 19.82373 | -156.03805 | 1444 ft | 93 kts | 185° |
| 2026-04-29 04:18 | 19.81746 | -156.03858 | 1320 ft | 88 kts | 186° |
| 2026-04-29 04:19 | 19.81145 | -156.03907 | 1222 ft | 85 kts | 186° |
| 2026-04-29 04:19 | 19.80567 | -156.03964 | 1103 ft | 82 kts | 185° |
| 2026-04-29 04:19 | 19.80014 | -156.04013 | 992 ft | 78 kts | 186° |
| 2026-04-29 04:19 | 19.79484 | -156.04056 | 887 ft | 75 kts | 186° |
| 2026-04-29 04:20 | 19.78941 | -156.04106 | 802 ft | 83 kts | 184° |
| 2026-04-29 04:20 | 19.78346 | -156.04164 | 692 ft | 88 kts | 185° |
| 2026-04-29 04:20 | 19.77724 | -156.04221 | 579 ft | 91 kts | 187° |
| 2026-04-29 04:20 | 19.77091 | -156.04291 | 454 ft | 91 kts | 185° |
| 2026-04-29 04:21 | 19.76459 | -156.04339 | 316 ft | 91 kts | 187° |
| 2026-04-29 04:21 | 19.75831 | -156.04396 | 195 ft | 90 kts | 184° |
| 2026-04-29 04:21 | 19.75208 | -156.04448 | 71 ft | 87 kts | 185° |
| 2026-04-29 04:21 | 19.74662 | -156.04497 | 54 ft | 69 kts | 185° |
| 2026-04-29 04:22 | 19.74326 | -156.04528 | 51 ft | 32 kts | 183° |
| 2026-04-29 04:22 | 19.74185 | -156.04545 | 50 ft | 0 kts | 193° |
| 2026-04-29 04:22 | 19.74169 | -156.04525 | 50 ft | 11 kts | 109° |
| 2026-04-29 04:23 | 19.74136 | -156.04418 | 50 ft | 20 kts | 97° |
| 2026-04-29 04:23 | 19.74084 | -156.04302 | 50 ft | 20 kts | 185° |
| 2026-04-29 04:23 | 19.73926 | -156.04307 | 49 ft | 26 kts | 186° |
| 2026-04-29 04:23 | 19.73774 | -156.04322 | 49 ft | 19 kts | 183° |
| 2026-04-29 04:24 | 19.73622 | -156.04336 | 49 ft | 22 kts | 181° |
| 2026-04-29 04:24 | 19.73470 | -156.04348 | 48 ft | 24 kts | 185° |
| 2026-04-29 04:24 | 19.73308 | -156.04362 | 48 ft | 23 kts | 185° |
| 2026-04-29 04:24 | 19.73219 | -156.04327 | 48 ft | 17 kts | 100° |
| 2026-04-29 04:25 | 19.73159 | -156.04245 | 47 ft | 16 kts | 168° |
| 2026-04-29 04:25 | 19.73143 | -156.04214 | 47 ft | 0 kts | 86° |